117 Куст

Карта отелей и гостиниц, располагающихся рядом с аэропортом 117 Куст :

117 Куст Ямало-Ненецкий автономный округ 66° 50' 18.8988" N, 79° 36' 24.3612" E
117 Куст Ямало-Ненецкий автономный округ 66° 50' 18.8988" N, 79° 36' 24.3612" E
Код аэродрома ИКАО
HB66
Код аэродрома RU
ХБ66
Координаты
N66.83858° E079.60677°
Превышение над уровнем моря
40
Основная полоса
Курс магнитный
Длина основной ВПП
Ширина основной ВПП
Покрытие основной ВПП
Освещение ВПП
Тип: 
Вертодром
Класс аэродрома: 
Принадлежность: 
Статус: 
Недействующий
Сайт: 
E-mail аэродрома: 
Страна: 
Россия
Регион: 
Ямало-Ненецкий автономный округ
Город: 
Дополнительная информация: 


Найти трансфер

С помощью этой формы Вы можете найти трансфер из аэропорта 117 Куст в город, аэропорт или вокзал:

Погода в аэропортах:

Авиационная погода в Савонлинна

Регион: 
Погода METAR: 
EFSA 291020Z AUTO 19005KT 160V230 9999 VCSH SCT040 //////CB 18/08 Q1003
Время наблюдения
2022-05-29T10:20:00Z
Температура C
18.0
Точка росы
8.0
Направление ветра
190
Скорость ветра (узлы)
5
Метео видимость
6.21
Облачность
SCT
Нижняя граница облачности (футы)
4000
Явления погоды
VCSH
Условия полета
VFR
SCT – разбросанная отдельная облачность;

Авиационная погода в Пулково

Регион: 
Погода METAR: 
ULLI 291030Z 30004MPS 9999 -SHRA SCT021CB BKN040 13/10 Q1006 R28L/290050 R28R/190055 NOSIG
Время наблюдения
2022-05-29T10:30:00Z
Температура C
13.0
Точка росы
10.0
Направление ветра
300
Скорость ветра (узлы)
8
Метео видимость
6.21
Облачность
SCT
BKN
Нижняя граница облачности (футы)
2100
4000
Явления погоды
-SHRA
Условия полета
VFR
Аэропорт подробнее: 
SCT – разбросанная отдельная облачность; BKN – значительная (рассеянная, разорванная) облачность;
-SHRA - слабый ливневой дождь;

Авиационная погода в Йоэнсуу

Регион: 
Погода METAR: 
EFJO 291020Z AUTO 05004KT 020V090 9999 -SHRA FEW033 //////CB 13/11 Q1004
Время наблюдения
2022-05-29T10:20:00Z
Температура C
13.0
Точка росы
11.0
Направление ветра
50
Скорость ветра (узлы)
4
Метео видимость
6.21
Облачность
FEW
Нижняя граница облачности (футы)
3300
Явления погоды
-SHRA
Условия полета
VFR
FEW – незначительная облачность;
-SHRA - слабый ливневой дождь;

Авиационная погода в Москва - Домодедово

Погода METAR: 
UUDD 291030Z 25006G11MPS 170V270 9999 -SHRA BKN050CB 12/05 Q1012 R32L/290045 NOSIG
Время наблюдения
2022-05-29T10:30:00Z
Температура C
12.0
Точка росы
5.0
Направление ветра
250
Скорость ветра (узлы)
12
Метео видимость
6.21
Облачность
BKN
Нижняя граница облачности (футы)
5000
Явления погоды
-SHRA
Условия полета
VFR
Аэропорт подробнее: 
BKN – значительная (рассеянная, разорванная) облачность;
-SHRA - слабый ливневой дождь;